createdAt,value
2017-07-27T00:02:06.551Z,99868
2017-07-27T00:07:09.732Z,99885
2017-07-27T00:12:12.908Z,99867
2017-07-27T00:17:16.081Z,99865
2017-07-27T00:22:19.267Z,99864
2017-07-27T00:27:23.206Z,99859
2017-07-27T00:32:26.415Z,99859
2017-07-27T00:37:29.599Z,99854
2017-07-27T00:42:33.546Z,99853
2017-07-27T00:47:36.727Z,99850
2017-07-27T00:52:40.665Z,99861
2017-07-27T00:57:43.850Z,99856
2017-07-27T01:02:47.037Z,99849
2017-07-27T01:07:50.231Z,99856
2017-07-27T01:12:53.402Z,99860
2017-07-27T01:17:56.583Z,99860
2017-07-27T01:23:00.535Z,99857
2017-07-27T01:28:03.704Z,99849
2017-07-27T01:33:06.872Z,99853
2017-07-27T01:38:10.097Z,99849
2017-07-27T01:43:13.277Z,99839
2017-07-27T01:48:16.421Z,99841
2017-07-27T01:53:19.589Z,99845
2017-07-27T01:58:22.790Z,99836
2017-07-27T02:03:25.983Z,99835
2017-07-27T02:08:29.173Z,99836
2017-07-27T02:13:33.097Z,99826
2017-07-27T02:18:37.057Z,99829
2017-07-27T02:23:40.246Z,99818
2017-07-27T02:28:43.430Z,99806
2017-07-27T02:33:47.376Z,99794
2017-07-27T02:38:50.582Z,99795
2017-07-27T02:43:54.524Z,99798
2017-07-27T02:48:57.721Z,99793
2017-07-27T02:54:00.944Z,99796
2017-07-27T02:59:04.146Z,99796
2017-07-27T03:04:07.318Z,99796
2017-07-27T03:09:11.272Z,99792
2017-07-27T03:14:14.436Z,99797
2017-07-27T03:19:18.483Z,99795
2017-07-27T03:24:22.410Z,99797
2017-07-27T03:29:25.614Z,99792
2017-07-27T03:34:29.537Z,99783
2017-07-27T03:39:32.745Z,99794
2017-07-27T03:44:35.930Z,99794
2017-07-27T03:49:39.875Z,99800
2017-07-27T03:54:43.084Z,99802
2017-07-27T03:59:47.109Z,99790
2017-07-27T04:04:50.295Z,99789
2017-07-27T04:09:53.489Z,99800
2017-07-27T04:14:56.673Z,99794
2017-07-27T04:19:59.848Z,99800
2017-07-27T04:25:03.061Z,99794
2017-07-27T04:30:06.250Z,99795
2017-07-27T04:35:09.472Z,99800
2017-07-27T04:40:12.769Z,99807
2017-07-27T04:45:16.753Z,99798
2017-07-27T04:50:20.269Z,99793
2017-07-27T04:55:23.437Z,99797
2017-07-27T05:00:26.626Z,99798
2017-07-27T05:05:29.819Z,99789
2017-07-27T05:10:33.799Z,99805
2017-07-27T05:15:36.973Z,99800
2017-07-27T05:20:40.164Z,99801
2017-07-27T05:25:43.413Z,99809
2017-07-27T05:30:46.748Z,99813
2017-07-27T05:35:49.972Z,99821
2017-07-27T05:40:53.939Z,99832
2017-07-27T05:45:57.147Z,99813
2017-07-27T05:51:00.343Z,99829
2017-07-27T05:56:03.538Z,99826
2017-07-27T06:01:06.697Z,99819
2017-07-27T06:06:09.874Z,99818
2017-07-27T06:11:13.071Z,99809
2017-07-27T06:16:16.254Z,99821
2017-07-27T06:21:20.239Z,99819
2017-07-27T06:26:23.441Z,99819
2017-07-27T06:31:26.623Z,99817
2017-07-27T06:36:29.821Z,99817
2017-07-27T06:41:33.017Z,99827
2017-07-27T06:46:36.188Z,99834
2017-07-27T06:51:39.374Z,99838
2017-07-27T06:56:42.575Z,99832
2017-07-27T07:01:45.772Z,99829
2017-07-27T07:06:48.977Z,99831
2017-07-27T07:11:52.147Z,99824
2017-07-27T07:16:55.386Z,99826
2017-07-27T07:21:58.683Z,99839
2017-07-27T07:27:02.060Z,99834
2017-07-27T07:32:06.047Z,99829
2017-07-27T07:37:09.230Z,99830
2017-07-27T07:42:12.386Z,99831
2017-07-27T07:47:15.578Z,99824
2017-07-27T07:52:18.767Z,99813
2017-07-27T07:57:21.968Z,99821
2017-07-27T08:02:25.186Z,99811
2017-07-27T08:07:28.379Z,99825
2017-07-27T08:12:31.558Z,99825
2017-07-27T08:17:35.481Z,99807
2017-07-27T08:22:38.661Z,99804
2017-07-27T08:27:41.917Z,99812
2017-07-27T08:32:45.173Z,99823
2017-07-27T08:37:48.378Z,99826
2017-07-27T08:42:51.557Z,99819
2017-07-27T08:47:54.825Z,99797
2017-07-27T08:52:58.854Z,99793
2017-07-27T08:58:02.002Z,99792
2017-07-27T09:03:05.193Z,99789
2017-07-27T09:08:08.377Z,99786
2017-07-27T09:13:11.557Z,99783
2017-07-27T09:18:15.527Z,99774
2017-07-27T09:23:18.705Z,99762
2017-07-27T09:28:22.643Z,99759
2017-07-27T09:33:25.828Z,99774
2017-07-27T09:38:29.758Z,99772
2017-07-27T09:43:32.937Z,99776
2017-07-27T09:48:36.141Z,99782
2017-07-27T09:53:39.325Z,99771
2017-07-27T09:58:42.532Z,99778
2017-07-27T10:03:45.914Z,99767
2017-07-27T10:08:49.103Z,99772
2017-07-27T10:13:52.346Z,99780
2017-07-27T10:18:55.506Z,99774
2017-07-27T10:23:59.462Z,99770
2017-07-27T10:29:02.648Z,99775
2017-07-27T10:34:06.680Z,99759
2017-07-27T10:39:10.614Z,99747
2017-07-27T10:44:13.781Z,99751
2017-07-27T10:49:16.964Z,99754
2017-07-27T10:54:20.122Z,99755
2017-07-27T10:59:23.353Z,99747
2017-07-27T11:04:26.547Z,99740
2017-07-27T11:09:29.737Z,99745
2017-07-27T11:14:33.697Z,99742
2017-07-27T11:19:36.869Z,99747
2017-07-27T11:24:40.829Z,99736
2017-07-27T11:29:44.020Z,99726
2017-07-27T11:34:47.210Z,99722
2017-07-27T11:39:51.137Z,99727
2017-07-27T11:44:54.316Z,99727
2017-07-27T11:49:57.496Z,99721
2017-07-27T11:55:00.679Z,99705
2017-07-27T12:00:03.869Z,99717
2017-07-27T12:05:07.038Z,99732
2017-07-27T12:10:10.222Z,99742
2017-07-27T12:15:13.420Z,99731
2017-07-27T12:20:16.602Z,99727
2017-07-27T12:25:19.775Z,99721
2017-07-27T12:30:22.975Z,99727
2017-07-27T12:35:26.162Z,99716
2017-07-27T12:40:29.401Z,99728
2017-07-27T12:45:33.341Z,99728
2017-07-27T12:50:36.581Z,99718
2017-07-27T12:55:39.772Z,99734
2017-07-27T13:00:42.968Z,99728
2017-07-27T13:05:46.155Z,99720
2017-07-27T13:10:50.109Z,99702
2017-07-27T13:15:53.301Z,99682
2017-07-27T13:20:57.275Z,99669
2017-07-27T13:26:00.443Z,99666
2017-07-27T13:31:03.613Z,99676
2017-07-27T13:36:07.551Z,99674
2017-07-27T13:41:11.510Z,99672
2017-07-27T13:46:14.709Z,99668
2017-07-27T13:51:17.996Z,99667
2017-07-27T13:56:21.964Z,99675
2017-07-27T14:01:25.164Z,99683
2017-07-27T14:06:28.346Z,99692
2017-07-27T14:11:31.538Z,99687
2017-07-27T14:16:34.737Z,99695
2017-07-27T14:21:38.773Z,99679
2017-07-27T14:26:42.732Z,99686
2017-07-27T14:31:45.953Z,99691
2017-07-27T14:36:49.126Z,99674
2017-07-27T14:41:52.302Z,99667
2017-07-27T14:46:56.270Z,99652
2017-07-27T14:51:59.437Z,99648
2017-07-27T14:57:03.406Z,99645
2017-07-27T15:02:06.597Z,99651
2017-07-27T15:07:09.796Z,99647
2017-07-27T15:12:13.001Z,99644
2017-07-27T15:17:16.194Z,99647
2017-07-27T15:22:20.157Z,99654
2017-07-27T15:27:23.369Z,99656
2017-07-27T15:32:26.550Z,99650
2017-07-27T15:37:29.726Z,99647
2017-07-27T15:42:33.678Z,99648
2017-07-27T15:47:36.845Z,99659
2017-07-27T15:52:40.061Z,99670
2017-07-27T15:57:43.253Z,99686
2017-07-27T16:02:46.429Z,99675
2017-07-27T16:07:49.618Z,99686
2017-07-27T16:12:52.825Z,99678
2017-07-27T16:17:56.071Z,99674
2017-07-27T16:22:59.232Z,99668
2017-07-27T16:28:02.450Z,99670
2017-07-27T16:33:05.639Z,99658
2017-07-27T16:38:08.804Z,99672
2017-07-27T16:43:11.999Z,99637
2017-07-27T16:48:15.179Z,99672
2017-07-27T16:53:18.361Z,99691
2017-07-27T16:58:21.574Z,99658
2017-07-27T17:03:24.786Z,99651
2017-07-27T17:08:28.000Z,99671
2017-07-27T17:13:31.208Z,99665
2017-07-27T17:18:35.270Z,99681
2017-07-27T17:23:38.475Z,99686
2017-07-27T17:28:41.789Z,99646
2017-07-27T17:33:44.976Z,99639
2017-07-27T17:38:48.220Z,99646
2017-07-27T17:43:52.174Z,99656
2017-07-27T17:48:55.369Z,99652
2017-07-27T17:53:59.345Z,99655
2017-07-27T17:59:02.554Z,99663
2017-07-27T18:04:05.762Z,99670
2017-07-27T18:09:08.967Z,99664
2017-07-27T18:14:12.203Z,99672
2017-07-27T18:19:15.511Z,99670
2017-07-27T18:24:18.697Z,99668
2017-07-27T18:29:21.902Z,99690
2017-07-27T18:34:25.067Z,99692
2017-07-27T18:39:28.234Z,99687
2017-07-27T18:44:31.405Z,99700
2017-07-27T18:49:34.662Z,99691
2017-07-27T18:54:37.843Z,99686
2017-07-27T18:59:41.039Z,99675
2017-07-27T19:04:44.241Z,99658
2017-07-27T19:09:47.416Z,99651
2017-07-27T19:14:50.646Z,99654
2017-07-27T19:19:53.828Z,99665
2017-07-27T19:24:57.048Z,99674
2017-07-27T19:30:00.403Z,99675
2017-07-27T19:35:03.610Z,99685
2017-07-27T19:40:06.789Z,99676
2017-07-27T19:45:09.992Z,99679
2017-07-27T19:50:13.192Z,99692
2017-07-27T19:55:16.369Z,99677
2017-07-27T20:00:20.330Z,99679
2017-07-27T20:05:23.509Z,99680
2017-07-27T20:10:26.725Z,99679
2017-07-27T20:15:29.926Z,99684
2017-07-27T20:20:33.122Z,99686
2017-07-27T20:25:37.095Z,99699
2017-07-27T20:30:40.258Z,99696
2017-07-27T20:35:44.251Z,99697
2017-07-27T20:40:47.399Z,99696
2017-07-27T20:45:50.578Z,99704
2017-07-27T20:50:54.545Z,99709
2017-07-27T20:55:57.750Z,99709
2017-07-27T21:01:01.033Z,99707
2017-07-27T21:06:04.986Z,99707
2017-07-27T21:11:08.203Z,99699
2017-07-27T21:16:11.373Z,99700
2017-07-27T21:21:14.684Z,99714
2017-07-27T21:26:18.611Z,99706
2017-07-27T21:31:21.821Z,99713
2017-07-27T21:36:25.014Z,99713
2017-07-27T21:41:29.014Z,99704
2017-07-27T21:46:32.184Z,99702
2017-07-27T21:51:35.516Z,99707
2017-07-27T21:56:38.742Z,99709
2017-07-27T22:01:41.945Z,99713
2017-07-27T22:06:45.189Z,99716
2017-07-27T22:11:48.413Z,99720
2017-07-27T22:16:51.619Z,99724
2017-07-27T22:21:54.868Z,99727
2017-07-27T22:26:58.061Z,99727
2017-07-27T22:32:01.249Z,99737
2017-07-27T22:37:04.443Z,99748
2017-07-27T22:42:07.733Z,99746
2017-07-27T22:47:10.923Z,99755
2017-07-27T22:52:14.886Z,99754
2017-07-27T22:57:18.061Z,99751
2017-07-27T23:02:22.022Z,99752
2017-07-27T23:07:25.237Z,99760
2017-07-27T23:12:28.434Z,99760
2017-07-27T23:17:31.659Z,99778
2017-07-27T23:22:34.976Z,99780
2017-07-27T23:27:38.181Z,99783
2017-07-27T23:32:41.412Z,99779
2017-07-27T23:37:44.578Z,99790
2017-07-27T23:42:47.765Z,99794
2017-07-27T23:47:50.929Z,99802
2017-07-27T23:52:54.097Z,99801
2017-07-27T23:57:57.274Z,99798
